Overseas Houston — WWAA — position and weather

sailwx.info

Track history (hours):
 
Tides and Currents Weather Stations Pressure Air Temp Water Temp Dewpoint Dewpoint Depression Visibility Wind Speed Wind Dir Waves Ship Positions

Overseas Houston

More information available from US FCC via Universal Licensing System and Coast Guard Vessel Documentation Center.

Last reported at 2014-Jul-24 16:28 UTC. Time now 2014-Jul-24 17:04 UTC.
Position N 27°52' W 082°33'.

Type: Tanker. MMSI: 367109000.

Date/timePositionNaut miles runAvg speedWind from/ knotsBaromVisibWave heightAir tempDewpointWater temp
2014-Jul-24 16:28N 27°52' W 082°33'0 0.0
2014-Jul-24 15:31N 27°52' W 082°33'0 0.0
2014-Jul-24 14:31N 27°52' W 082°33'0 0.0
2014-Jul-24 13:31N 27°52' W 082°33'0 0.0
2014-Jul-24 12:31N 27°52' W 082°33'0 0.0
2014-Jul-24 11:31N 27°52' W 082°33'0 0.0
2014-Jul-24 10:34N 27°52' W 082°33'0 0.0
2014-Jul-24 09:33N 27°52' W 082°33'0 0.0
2014-Jul-24 08:33N 27°52' W 082°33'0 0.0
2014-Jul-24 07:33N 27°52' W 082°33'0 0.0
2014-Jul-24 06:33N 27°52' W 082°33'0 0.0
2014-Jul-24 05:33N 27°52' W 082°33'0 0.0
2014-Jul-24 04:33N 27°52' W 082°33'0 0.0
2014-Jul-24 03:33N 27°52' W 082°33'0 0.0
2014-Jul-24 02:33N 27°52' W 082°33'0 0.3
2014-Jul-24 01:34N 27°52' W 082°33'5 4.9
2014-Jul-24 00:34N 27°47' W 082°31'9 8.7
2014-Jul-23 23:33N 27°55' W 082°27'0 0.4
2014-Jul-23 22:31N 27°55' W 082°27'0 0.0
2014-Jul-23 21:31N 27°55' W 082°27'0 0.0
2014-Jul-23 20:31N 27°55' W 082°27'0 0.0
2014-Jul-23 19:31N 27°55' W 082°27'0 0.0
2014-Jul-23 18:31N 27°55' W 082°27'0 0.0
2014-Jul-23 17:31N 27°55' W 082°27'0 0.0
2014-Jul-23 16:31N 27°55' W 082°27'0 0.0
2014-Jul-23 15:31N 27°55' W 082°27'0 0.0
2014-Jul-23 14:31N 27°55' W 082°27'0 0.0
2014-Jul-23 13:31N 27°55' W 082°27'0 0.0
2014-Jul-23 12:31N 27°55' W 082°27'0 0.0
2014-Jul-23 11:31N 27°55' W 082°27'0 0.0
2014-Jul-23 10:31N 27°55' W 082°27'0 0.0
2014-Jul-23 09:31N 27°55' W 082°27'0 0.0
2014-Jul-23 08:31N 27°55' W 082°27'0 0.0
2014-Jul-23 07:31N 27°55' W 082°27'0 0.0
2014-Jul-23 06:31N 27°55' W 082°27'0 0.0
2014-Jul-23 05:25N 27°55' W 082°27'0 0.0
2014-Jul-23 04:31N 27°55' W 082°27'0 0.0
2014-Jul-23 03:31N 27°55' W 082°27'0 0.0
2014-Jul-23 02:31N 27°55' W 082°27'1 1.5
2014-Jul-23 01:33N 27°54' W 082°26'10 9.7
2014-Jul-23 00:33N 27°45' W 082°31'1111.3
2014-Jul-22 23:33N 27°37' W 082°40'1211.8
2014-Jul-22 22:33N 27°36' W 082°54'7 3.6
2014-Jul-22 20:30N 27°37' W 083°02'0 0.0
2014-Jul-22 19:33N 27°37' W 083°02'0 0.0
2014-Jul-22 18:33N 27°37' W 083°02'0 0.0
2014-Jul-22 17:33N 27°37' W 083°02'0 0.0
2014-Jul-22 16:33N 27°37' W 083°02'0 0.0
2014-Jul-22 13:18N 27°37' W 083°02'0 0.0
2014-Jul-22 12:29N 27°37' W 083°02'0 0.0
2014-Jul-22 11:17N 27°37' W 083°02'4 5.6
2014-Jul-22 10:33N 27°36' W 083°06'  
2014-Jul-16 15:23N 27°36' W 083°11'1114.0
2014-Jul-16 14:33N 27°36' W 082°58'1111.5
2014-Jul-16 13:34N 27°37' W 082°46'1313.1
2014-Jul-16 12:33N 27°43' W 082°33'9 8.7
2014-Jul-16 11:34N 27°52' W 082°33'0 0.4
2014-Jul-16 10:34N 27°52' W 082°33'0 0.0
2014-Jul-16 09:33N 27°52' W 082°33'0 0.0
2014-Jul-16 08:33N 27°52' W 082°33'0 0.0
2014-Jul-16 07:33N 27°52' W 082°33'0 0.0
2014-Jul-16 06:27N 27°52' W 082°33'0 0.0
2014-Jul-16 05:30N 27°52' W 082°33'0 0.0
2014-Jul-16 04:33N 27°52' W 082°33'0 0.0
2014-Jul-16 03:33N 27°52' W 082°33'0 0.0
2014-Jul-16 02:33N 27°52' W 082°33'0 0.0
2014-Jul-16 01:33N 27°52' W 082°33'0 0.0
2014-Jul-16 00:33N 27°52' W 082°33'0 0.0
2014-Jul-15 23:33N 27°52' W 082°33'0 0.0
2014-Jul-15 22:33N 27°52' W 082°33'0 0.0
2014-Jul-15 21:33N 27°52' W 082°33'0 0.0
2014-Jul-15 20:33N 27°52' W 082°33'0 0.0
2014-Jul-15 19:33N 27°52' W 082°33'0 0.0
2014-Jul-15 18:33N 27°52' W 082°33'0 0.0
2014-Jul-15 17:30N 27°52' W 082°33'0 0.0
2014-Jul-15 16:33N 27°52' W 082°33'0 0.0
2014-Jul-15 15:30N 27°52' W 082°33'0 0.0
2014-Jul-15 14:33N 27°52' W 082°33'0 0.0
2014-Jul-15 13:33N 27°52' W 082°33'0 0.0
2014-Jul-15 12:33N 27°52' W 082°33'0 0.0
2014-Jul-15 11:33N 27°52' W 082°33'0 0.0
2014-Jul-15 10:30N 27°52' W 082°33'0 0.0
2014-Jul-15 09:33N 27°52' W 082°33'0 0.0
2014-Jul-15 08:33N 27°52' W 082°33'0 0.0
2014-Jul-15 07:33N 27°52' W 082°33'0 0.0
2014-Jul-15 06:33N 27°52' W 082°33'0 0.0
2014-Jul-15 05:33N 27°52' W 082°33'1 0.6
2014-Jul-15 04:33N 27°51' W 082°33'5 4.8
2014-Jul-15 03:34N 27°47' W 082°30'8 8.2
2014-Jul-15 02:33N 27°55' W 082°27'0 0.2
2014-Jul-15 01:32N 27°55' W 082°27'0 0.0
2014-Jul-15 00:29N 27°55' W 082°27'0 0.0
2014-Jul-14 23:32N 27°55' W 082°27'0 0.0
2014-Jul-14 22:32N 27°55' W 082°27'0 0.0
2014-Jul-14 21:32N 27°55' W 082°27'0 0.0
2014-Jul-14 20:32N 27°55' W 082°27'0 0.0
2014-Jul-14 19:32N 27°55' W 082°27'0 0.0
2014-Jul-14 18:32N 27°55' W 082°27'0 0.0
2014-Jul-14 17:32N 27°55' W 082°27'0 0.0
2014-Jul-14 16:32N 27°55' W 082°27'  
Track history (hours):
 
Tides and Currents Weather Stations Pressure Air Temp Water Temp Dewpoint Dewpoint Depression Visibility Wind Speed Wind Dir Waves Ship Positions

Overseas Houston

More information available from US FCC via Universal Licensing System and Coast Guard Vessel Documentation Center.

Last reported at 2014-Jul-24 16:28 UTC. Time now 2014-Jul-24 17:04 UTC.
Position N 27°52' W 082°33'.

Type: Tanker. MMSI: 367109000.

Date/timePositionNaut miles runAvg speedWind from/ knotsBaromVisibWave heightAir tempDewpointWater temp
2014-Jul-24 16:28N 27°52' W 082°33'0 0.0
2014-Jul-24 15:31N 27°52' W 082°33'0 0.0
2014-Jul-24 14:31N 27°52' W 082°33'0 0.0
2014-Jul-24 13:31N 27°52' W 082°33'0 0.0
2014-Jul-24 12:31N 27°52' W 082°33'0 0.0
2014-Jul-24 11:31N 27°52' W 082°33'0 0.0
2014-Jul-24 10:34N 27°52' W 082°33'0 0.0
2014-Jul-24 09:33N 27°52' W 082°33'0 0.0
2014-Jul-24 08:33N 27°52' W 082°33'0 0.0
2014-Jul-24 07:33N 27°52' W 082°33'0 0.0
2014-Jul-24 06:33N 27°52' W 082°33'0 0.0
2014-Jul-24 05:33N 27°52' W 082°33'0 0.0
2014-Jul-24 04:33N 27°52' W 082°33'0 0.0
2014-Jul-24 03:33N 27°52' W 082°33'0 0.0
2014-Jul-24 02:33N 27°52' W 082°33'0 0.3
2014-Jul-24 01:34N 27°52' W 082°33'5 4.9
2014-Jul-24 00:34N 27°47' W 082°31'9 8.7
2014-Jul-23 23:33N 27°55' W 082°27'0 0.4
2014-Jul-23 22:31N 27°55' W 082°27'0 0.0
2014-Jul-23 21:31N 27°55' W 082°27'0 0.0
2014-Jul-23 20:31N 27°55' W 082°27'0 0.0
2014-Jul-23 19:31N 27°55' W 082°27'0 0.0
2014-Jul-23 18:31N 27°55' W 082°27'0 0.0
2014-Jul-23 17:31N 27°55' W 082°27'0 0.0
2014-Jul-23 16:31N 27°55' W 082°27'0 0.0
2014-Jul-23 15:31N 27°55' W 082°27'0 0.0
2014-Jul-23 14:31N 27°55' W 082°27'0 0.0
2014-Jul-23 13:31N 27°55' W 082°27'0 0.0
2014-Jul-23 12:31N 27°55' W 082°27'0 0.0
2014-Jul-23 11:31N 27°55' W 082°27'0 0.0
2014-Jul-23 10:31N 27°55' W 082°27'0 0.0
2014-Jul-23 09:31N 27°55' W 082°27'0 0.0
2014-Jul-23 08:31N 27°55' W 082°27'0 0.0
2014-Jul-23 07:31N 27°55' W 082°27'0 0.0
2014-Jul-23 06:31N 27°55' W 082°27'0 0.0
2014-Jul-23 05:25N 27°55' W 082°27'0 0.0
2014-Jul-23 04:31N 27°55' W 082°27'0 0.0
2014-Jul-23 03:31N 27°55' W 082°27'0 0.0
2014-Jul-23 02:31N 27°55' W 082°27'1 1.5
2014-Jul-23 01:33N 27°54' W 082°26'10 9.7
2014-Jul-23 00:33N 27°45' W 082°31'1111.3
2014-Jul-22 23:33N 27°37' W 082°40'1211.8
2014-Jul-22 22:33N 27°36' W 082°54'7 3.6
2014-Jul-22 20:30N 27°37' W 083°02'0 0.0
2014-Jul-22 19:33N 27°37' W 083°02'0 0.0
2014-Jul-22 18:33N 27°37' W 083°02'0 0.0
2014-Jul-22 17:33N 27°37' W 083°02'0 0.0
2014-Jul-22 16:33N 27°37' W 083°02'0 0.0
2014-Jul-22 13:18N 27°37' W 083°02'0 0.0
2014-Jul-22 12:29N 27°37' W 083°02'0 0.0
2014-Jul-22 11:17N 27°37' W 083°02'4 5.6
2014-Jul-22 10:33N 27°36' W 083°06'  
2014-Jul-16 15:23N 27°36' W 083°11'1114.0
2014-Jul-16 14:33N 27°36' W 082°58'1111.5
2014-Jul-16 13:34N 27°37' W 082°46'1313.1
2014-Jul-16 12:33N 27°43' W 082°33'9 8.7
2014-Jul-16 11:34N 27°52' W 082°33'0 0.4
2014-Jul-16 10:34N 27°52' W 082°33'0 0.0
2014-Jul-16 09:33N 27°52' W 082°33'0 0.0
2014-Jul-16 08:33N 27°52' W 082°33'0 0.0
2014-Jul-16 07:33N 27°52' W 082°33'0 0.0
2014-Jul-16 06:27N 27°52' W 082°33'0 0.0
2014-Jul-16 05:30N 27°52' W 082°33'0 0.0
2014-Jul-16 04:33N 27°52' W 082°33'0 0.0
2014-Jul-16 03:33N 27°52' W 082°33'0 0.0
2014-Jul-16 02:33N 27°52' W 082°33'0 0.0
2014-Jul-16 01:33N 27°52' W 082°33'0 0.0
2014-Jul-16 00:33N 27°52' W 082°33'0 0.0
2014-Jul-15 23:33N 27°52' W 082°33'0 0.0
2014-Jul-15 22:33N 27°52' W 082°33'0 0.0
2014-Jul-15 21:33N 27°52' W 082°33'0 0.0
2014-Jul-15 20:33N 27°52' W 082°33'0 0.0
2014-Jul-15 19:33N 27°52' W 082°33'0 0.0
2014-Jul-15 18:33N 27°52' W 082°33'0 0.0
2014-Jul-15 17:30N 27°52' W 082°33'0 0.0
2014-Jul-15 16:33N 27°52' W 082°33'0 0.0
2014-Jul-15 15:30N 27°52' W 082°33'0 0.0
2014-Jul-15 14:33N 27°52' W 082°33'0 0.0
2014-Jul-15 13:33N 27°52' W 082°33'0 0.0
2014-Jul-15 12:33N 27°52' W 082°33'0 0.0
2014-Jul-15 11:33N 27°52' W 082°33'0 0.0
2014-Jul-15 10:30N 27°52' W 082°33'0 0.0
2014-Jul-15 09:33N 27°52' W 082°33'0 0.0
2014-Jul-15 08:33N 27°52' W 082°33'0 0.0
2014-Jul-15 07:33N 27°52' W 082°33'0 0.0
2014-Jul-15 06:33N 27°52' W 082°33'0 0.0
2014-Jul-15 05:33N 27°52' W 082°33'1 0.6
2014-Jul-15 04:33N 27°51' W 082°33'5 4.8
2014-Jul-15 03:34N 27°47' W 082°30'8 8.2
2014-Jul-15 02:33N 27°55' W 082°27'0 0.2
2014-Jul-15 01:32N 27°55' W 082°27'0 0.0
2014-Jul-15 00:29N 27°55' W 082°27'0 0.0
2014-Jul-14 23:32N 27°55' W 082°27'0 0.0
2014-Jul-14 22:32N 27°55' W 082°27'0 0.0
2014-Jul-14 21:32N 27°55' W 082°27'0 0.0
2014-Jul-14 20:32N 27°55' W 082°27'0 0.0
2014-Jul-14 19:32N 27°55' W 082°27'0 0.0
2014-Jul-14 18:32N 27°55' W 082°27'0 0.0
2014-Jul-14 17:32N 27°55' W 082°27'0 0.0
2014-Jul-14 16:32N 27°55' W 082°27'  

Dump ship's entire track history